Etusivu
METAR-TAF:

METAR-TAF

Lentoasemat :

Pilanesberg International Airport

Sun City, Etelä-Afrikka

Leveyspiiri: 25-20-01S, Pituuspiiri: 027-10-24E, korkeus merenpinnasta: 1040 m

Tämänhetkinen sää

Tämä raportti tehtiin 1 tunti ja 15 minuuttia sitten, kello 05.00 UTC
tyyntä
Lämpötila 1°C
Kosteus 93%
Ilmanpaine 1029 hPa

METAR: FAPN 140500Z AUTO 00000KT //// // ////// 01/M00 Q1029

Aika: 08:15 (06:15 UTC)


TAF: puuttuu

Säähavainnot ja -ennusteet yli 4000 lentoasemalta (METAR- ja TAF-raportit).

Käytössä olevat sääasemat on merkitty karttaan keltaisilla ja punaisilla pisteillä.

Aseta hiiri pisteen päälle nähdäksesi sääaseman nimen.

Klikkaa sitten nähdäksesi säähavainnot ja -ennusteet.

Kartan vaihtaminen: klikkaa mustalla rastilla varustettuja vihreitä pisteitä, niin voit zoomata sisään; viivalla varustettua vihreää pistettä, niin voit zoomata ulos tai vihreitä nuolia, niin pääset viereisille kartoille.


METAR-TAF: